Time;durP1;ratioP1;P1;durP2;ratioP2;P2;SDS_P1;SDS_P2;PMS_P1;PMS_P2;Temp;Humidity;BMP_temperature;BMP_pressure;BME280_temperature;BME280_humidity;BME280_pressure;Samples;Min_cycle;Max_cycle;Signal;HPM_P1;HPM_P2
2023/11/08 00:00:25;;;;;;;2.90;2.15;;;;;;;9.31;88.29;98186.84;4186540;28;21098;-86
2023/11/08 00:02:28;;;;;;;4.45;3.17;;;;;;;9.30;88.08;98195.56;4181496;28;20297;-86
2023/11/08 00:04:31;;;;;;;6.20;2.10;;;;;;;9.27;88.90;98192.34;4187081;28;20205;-86
2023/11/08 00:06:34;;;;;;;2.75;2.10;;;;;;;9.23;88.73;98194.28;4183435;28;20648;-86
2023/11/08 00:08:37;;;;;;;2.60;1.92;;;;;;;9.20;88.84;98183.22;4203511;28;20535;-86
2023/11/08 00:10:42;;;;;;;2.37;2.07;;;;;;;9.17;88.79;98183.41;4189211;28;20201;-86
2023/11/08 00:12:45;;;;;;;2.75;2.33;;;;;;;9.13;88.96;98187.97;4187973;28;20639;-86
2023/11/08 00:14:48;;;;;;;4.00;2.57;;;;;;;9.12;88.07;98188.06;4165520;28;20293;-85
2023/11/08 00:16:51;;;;;;;2.90;2.00;;;;;;;9.12;88.24;98182.84;4198776;28;20669;-85
2023/11/08 00:18:54;;;;;;;4.00;2.80;;;;;;;9.15;88.71;98185.28;4198585;28;20647;-86
2023/11/08 00:20:58;;;;;;;4.03;2.30;;;;;;;9.12;88.36;98182.84;4204660;28;20631;-85
2023/11/08 00:23:01;;;;;;;4.50;2.27;;;;;;;9.11;88.12;98181.19;4172541;28;20641;-85
2023/11/08 00:25:05;;;;;;;3.80;2.00;;;;;;;9.11;88.91;98183.78;4205211;28;21274;-85
2023/11/08 00:27:10;;;;;;;3.47;2.20;;;;;;;9.10;88.91;98187.34;4186363;28;20612;-85
2023/11/08 00:29:13;;;;;;;6.17;1.83;;;;;;;9.08;89.27;98192.63;4174590;28;21080;-86
2023/11/08 00:31:16;;;;;;;3.95;1.85;;;;;;;9.07;90.04;98188.34;4198520;28;21247;-86
2023/11/08 00:33:19;;;;;;;2.90;2.07;;;;;;;9.05;90.25;98191.97;4179135;28;20206;-86
2023/11/08 00:35:26;;;;;;;4.00;2.00;;;;;;;9.03;90.17;98183.41;4210776;28;21050;-86
2023/11/08 00:37:30;;;;;;;3.00;2.20;;;;;;;9.05;89.50;98189.34;4192965;28;20223;-86
2023/11/08 00:39:34;;;;;;;3.15;1.95;;;;;;;9.03;90.24;98189.44;4165704;28;20272;-85
2023/11/08 00:41:37;;;;;;;4.35;2.03;;;;;;;9.05;90.57;98192.81;4203561;28;20204;-85
2023/11/08 00:43:42;;;;;;;3.08;2.10;;;;;;;9.05;90.94;98187.59;4196488;28;20208;-85
2023/11/08 00:45:46;;;;;;;3.30;2.00;;;;;;;9.06;90.30;98191.88;4188176;28;20974;-85
2023/11/08 00:47:50;;;;;;;2.50;1.97;;;;;;;9.07;90.36;98201.34;4164397;28;21071;-85
2023/11/08 00:49:53;;;;;;;2.60;1.90;;;;;;;9.04;90.34;98203.31;4184020;28;20644;-86
2023/11/08 00:52:00;;;;;;;2.70;1.73;;;;;;;9.01;90.99;98199.13;4172128;28;20633;-85
2023/11/08 00:54:03;;;;;;;2.20;1.75;;;;;;;9.02;90.73;98198.19;4182564;28;20635;-86
2023/11/08 00:56:06;;;;;;;2.85;1.75;;;;;;;9.05;90.21;98203.22;4187391;28;20633;-86
2023/11/08 00:58:10;;;;;;;3.90;1.97;;;;;;;9.09;90.73;98201.25;4181091;28;20205;-86
2023/11/08 01:00:15;;;;;;;4.03;1.90;;;;;;;9.10;89.89;98203.75;4174909;28;20628;-87
2023/11/08 01:02:19;;;;;;;2.63;1.90;;;;;;;9.09;89.60;98202.09;4167043;28;20202;-86
2023/11/08 01:04:22;;;;;;;3.97;1.67;;;;;;;9.10;90.06;98210.75;4172155;28;20973;-86
2023/11/08 01:06:26;;;;;;;4.40;1.50;;;;;;;9.10;89.93;98211.56;4189371;28;20627;-86
2023/11/08 01:08:30;;;;;;;7.10;2.70;;;;;;;9.08;89.80;98207.38;4190162;28;20248;-86
2023/11/08 01:10:33;;;;;;;2.15;1.85;;;;;;;9.02;88.71;98207.75;4168351;28;20237;-85
2023/11/08 01:12:41;;;;;;;4.00;2.03;;;;;;;8.94;89.22;98210.84;4186089;28;20233;-86
2023/11/08 01:14:44;;;;;;;3.70;2.17;;;;;;;8.97;90.23;98215.00;4192815;28;20215;-85
2023/11/08 01:16:48;;;;;;;4.97;2.47;;;;;;;8.98;91.69;98220.09;4174008;28;20202;-86
2023/11/08 01:18:51;;;;;;;3.55;1.83;;;;;;;9.00;91.23;98213.03;4183030;28;20202;-86
2023/11/08 01:20:54;;;;;;;3.67;2.38;;;;;;;8.99;91.99;98214.00;4198776;28;20602;-86
2023/11/08 01:23:02;;;;;;;3.90;1.93;;;;;;;9.01;91.95;98219.94;4170758;28;20263;-85
2023/11/08 01:25:06;;;;;;;3.25;1.90;;;;;;;9.01;91.97;98201.72;4184165;28;21110;-85
2023/11/08 01:27:10;;;;;;;2.25;1.70;;;;;;;9.03;91.51;98210.25;4189677;28;20304;-86
2023/11/08 01:29:13;;;;;;;5.83;2.10;;;;;;;9.01;92.21;98206.09;4204200;28;20335;-85
2023/11/08 01:31:17;;;;;;;2.97;1.80;;;;;;;9.00;91.33;98205.22;4186006;28;20712;-86
2023/11/08 01:33:21;;;;;;;3.27;1.63;;;;;;;9.00;90.85;98197.44;4199477;28;20634;-86
2023/11/08 01:35:23;;;;;;;8.68;2.08;;;;;;;9.02;91.34;98198.19;4172040;28;20648;-86
2023/11/08 01:37:27;;;;;;;2.28;1.50;;;;;;;9.00;89.97;98205.22;4201397;28;20260;-86
2023/11/08 01:39:31;;;;;;;3.87;1.50;;;;;;;9.03;91.11;98199.84;4182539;28;20212;-86
2023/11/08 01:41:33;;;;;;;5.15;1.27;;;;;;;9.03;90.09;98199.03;4172135;28;20625;-86
2023/11/08 01:43:38;;;;;;;2.95;1.48;;;;;;;9.06;90.83;98202.28;4170674;28;20292;-85
2023/11/08 01:45:41;;;;;;;2.88;1.27;;;;;;;9.08;90.46;98197.81;4201546;28;20213;-86
2023/11/08 01:47:44;;;;;;;3.70;1.42;;;;;;;9.05;90.46;98195.41;4173972;28;20672;-86
2023/11/08 01:49:49;;;;;;;2.97;1.55;;;;;;;9.01;91.51;98193.09;4170146;28;20202;-86
2023/11/08 01:51:52;;;;;;;5.03;1.40;;;;;;;8.93;90.28;98185.75;4200650;28;20205;-86
2023/11/08 01:53:55;;;;;;;3.60;1.70;;;;;;;8.91;90.86;98185.94;4174988;28;20210;-86
2023/11/08 01:55:59;;;;;;;3.05;1.33;;;;;;;8.85;92.13;98179.31;4169944;28;20298;-86
2023/11/08 01:58:04;;;;;;;3.70;1.25;;;;;;;8.92;91.45;98188.44;4171907;28;20230;-86
2023/11/08 02:00:09;;;;;;;4.55;1.80;;;;;;;8.86;90.98;98181.00;4180870;28;20210;-86
2023/11/08 02:02:19;;;;;;;2.42;1.10;;;;;;;8.84;90.69;98182.00;4183168;28;20237;-86
2023/11/08 02:04:23;;;;;;;1.98;1.10;;;;;;;8.93;91.60;98192.72;4189580;28;20684;-86
2023/11/08 02:06:27;;;;;;;3.13;1.10;;;;;;;8.91;91.88;98193.72;4176252;28;20213;-86
2023/11/08 02:08:31;;;;;;;2.38;1.40;;;;;;;8.92;91.08;98190.22;4178450;28;20238;-86
2023/11/08 02:10:34;;;;;;;4.32;1.60;;;;;;;8.90;91.46;98184.25;4175307;28;20709;-86
2023/11/08 02:12:40;;;;;;;4.22;1.00;;;;;;;8.86;92.14;98186.22;4166004;28;20225;-86
2023/11/08 02:15:05;;;;;;;3.90;1.50;;;;;;;8.87;91.28;98193.09;4177138;28;20256;-86
2023/11/08 02:17:12;;;;;;;3.15;1.50;;;;;;;8.84;91.25;98188.06;4182876;28;20205;-85
2023/11/08 02:19:15;;;;;;;3.00;1.30;;;;;;;8.78;90.21;98190.19;4189706;28;20235;-86
2023/11/08 02:21:19;;;;;;;4.35;1.17;;;;;;;8.77;90.98;98191.97;4175256;28;20256;-86
2023/11/08 02:23:23;;;;;;;2.85;1.13;;;;;;;8.77;91.66;98185.94;4171300;28;20214;-86
2023/11/08 02:25:29;;;;;;;4.70;1.55;;;;;;;8.72;90.87;98187.94;4190177;28;20238;-86
2023/11/08 02:27:31;;;;;;;4.00;1.20;;;;;;;8.76;90.89;98184.25;4164815;28;20207;-86
2023/11/08 02:29:34;;;;;;;4.25;1.20;;;;;;;8.74;90.47;98175.72;4185558;28;20216;-86
2023/11/08 02:31:37;;;;;;;6.28;1.20;;;;;;;8.75;90.18;98177.38;4188402;28;20692;-86
2023/11/08 02:33:40;;;;;;;1.90;1.10;;;;;;;8.73;90.67;98179.22;4173931;28;20213;-86
2023/11/08 02:35:44;;;;;;;2.00;1.15;;;;;;;8.73;90.28;98176.63;4177040;28;20293;-86
2023/11/08 02:37:48;;;;;;;2.70;1.35;;;;;;;8.71;90.70;98184.53;4188484;28;20292;-86
2023/11/08 02:39:51;;;;;;;3.75;1.20;;;;;;;8.66;90.85;98178.78;4193036;28;20220;-86
2023/11/08 02:41:56;;;;;;;2.42;1.05;;;;;;;8.65;92.43;98186.66;4208885;28;20201;-86
2023/11/08 02:43:59;;;;;;;2.97;1.10;;;;;;;8.70;91.71;98185.44;4177354;28;20226;-86
2023/11/08 02:46:02;;;;;;;2.60;1.20;;;;;;;8.73;91.52;98184.44;4205791;28;20208;-86
2023/11/08 02:48:06;;;;;;;4.65;1.00;;;;;;;8.69;91.15;98196.78;4166487;28;20294;-86
2023/11/08 02:50:10;;;;;;;2.08;1.02;;;;;;;8.68;91.47;98191.66;4189938;28;20203;-86
2023/11/08 02:52:13;;;;;;;2.13;0.98;;;;;;;8.66;90.16;98177.91;4176300;28;20209;-86
2023/11/08 02:54:16;;;;;;;1.75;1.33;;;;;;;8.66;91.01;98178.78;4182631;28;20706;-86
2023/11/08 02:56:19;;;;;;;2.15;1.33;;;;;;;8.68;90.96;98189.91;4204965;28;20208;-85
2023/11/08 02:58:23;;;;;;;2.28;1.23;;;;;;;8.71;91.37;98196.69;4188231;28;20218;-86
2023/11/08 03:00:27;;;;;;;2.17;1.10;;;;;;;8.73;90.38;98192.22;4172394;28;20234;-86
2023/11/08 03:02:33;;;;;;;3.38;1.10;;;;;;;8.75;91.14;98193.81;4204563;28;20204;-86
2023/11/08 03:04:37;;;;;;;2.30;1.13;;;;;;;8.78;90.83;98192.78;4204110;28;20257;-86
2023/11/08 03:06:41;;;;;;;3.13;1.30;;;;;;;8.77;90.26;98194.56;4176921;28;20237;-86
2023/11/08 03:08:44;;;;;;;1.60;1.10;;;;;;;8.79;89.40;98186.66;4188311;28;20707;-86
2023/11/08 03:10:48;;;;;;;3.45;1.10;;;;;;;8.83;90.88;98193.38;4205243;28;20220;-86
2023/11/08 03:12:53;;;;;;;2.25;1.15;;;;;;;8.88;90.41;98201.72;4192337;28;20198;-86
2023/11/08 03:14:58;;;;;;;3.60;1.10;;;;;;;8.92;90.52;98211.03;4185503;28;20263;-85
2023/11/08 03:17:01;;;;;;;1.50;0.98;;;;;;;8.92;91.08;98204.88;4199884;28;20281;-86
2023/11/08 03:19:08;;;;;;;3.78;1.20;;;;;;;8.97;91.00;98208.03;4183757;28;20209;-86
2023/11/08 03:21:11;;;;;;;2.10;1.23;;;;;;;9.02;90.85;98208.59;4202299;28;20204;-86
2023/11/08 03:23:14;;;;;;;2.42;1.15;;;;;;;9.07;90.33;98203.94;4182700;28;20205;-86
2023/11/08 03:25:18;;;;;;;2.60;1.10;;;;;;;9.08;89.89;98203.03;4207593;28;20216;-85
2023/11/08 03:27:22;;;;;;;1.70;0.90;;;;;;;9.05;90.06;98202.34;4172559;28;20249;-86
2023/11/08 03:29:25;;;;;;;2.13;1.00;;;;;;;9.07;89.87;98211.75;4189145;28;20205;-86
2023/11/08 03:31:32;;;;;;;2.03;1.13;;;;;;;9.11;90.42;98208.06;4175418;28;20332;-86
2023/11/08 03:33:35;;;;;;;2.40;1.20;;;;;;;9.14;89.77;98213.06;4206110;28;20207;-86
2023/11/08 03:35:41;;;;;;;2.13;1.08;;;;;;;9.19;90.42;98220.59;4190817;28;20197;-86
2023/11/08 03:37:44;;;;;;;2.65;1.20;;;;;;;9.26;90.78;98221.88;4180099;28;20208;-86
2023/11/08 03:39:48;;;;;;;2.53;1.17;;;;;;;9.30;90.16;98229.41;4197062;28;20240;-86
2023/11/08 03:41:51;;;;;;;3.95;2.20;;;;;;;9.36;89.71;98234.22;4170491;28;20985;-86
2023/11/08 03:43:54;;;;;;;8.30;4.30;;;;;;;9.38;90.25;98232.38;4201031;28;20239;-86
2023/11/08 03:45:57;;;;;;;3.00;1.83;;;;;;;9.39;89.82;98234.88;4188757;28;20745;-86
2023/11/08 03:48:02;;;;;;;1.90;1.43;;;;;;;9.39;89.92;98227.06;4203212;28;21345;-86
2023/11/08 03:50:05;;;;;;;2.35;1.40;;;;;;;9.41;89.69;98232.19;4203301;28;20642;-85
2023/11/08 03:52:08;;;;;;;1.90;1.38;;;;;;;9.43;89.70;98236.38;4184379;28;20777;-86
2023/11/08 03:54:11;;;;;;;2.10;1.30;;;;;;;9.45;89.78;98236.28;4184558;28;20213;-86
2023/11/08 03:56:13;;;;;;;2.60;1.40;;;;;;;9.45;89.71;98237.09;4188255;28;21292;-85
2023/11/08 03:58:16;;;;;;;3.85;1.90;;;;;;;9.47;89.83;98234.41;4188943;28;20213;-86
2023/11/08 04:00:20;;;;;;;4.47;2.27;;;;;;;9.50;90.31;98242.88;4204299;28;20755;-86
2023/11/08 04:02:23;;;;;;;5.13;2.50;;;;;;;9.52;90.20;98240.19;4181819;28;21218;-86
2023/11/08 04:04:27;;;;;;;3.00;1.58;;;;;;;9.52;90.27;98234.97;4185997;28;20647;-86
2023/11/08 04:06:30;;;;;;;2.70;1.60;;;;;;;9.53;90.25;98234.03;4206246;28;20205;-86
2023/11/08 04:08:34;;;;;;;3.25;1.20;;;;;;;9.53;89.56;98234.03;4189937;28;20620;-86
2023/11/08 04:10:38;;;;;;;3.28;1.33;;;;;;;9.55;89.47;98238.22;4184684;28;20197;-85
2023/11/08 04:12:41;;;;;;;2.90;1.90;;;;;;;9.58;90.36;98245.00;4199999;28;20685;-85
2023/11/08 04:14:44;;;;;;;5.60;3.20;;;;;;;9.59;89.06;98241.47;4202768;28;21226;-86
2023/11/08 04:16:47;;;;;;;3.50;1.83;;;;;;;9.58;89.59;98239.81;4188503;28;20674;-86
2023/11/08 04:18:51;;;;;;;4.30;2.00;;;;;;;9.52;89.60;98235.81;4173952;28;20628;-86
2023/11/08 04:20:56;;;;;;;4.00;1.60;;;;;;;9.53;89.56;98234.03;4162534;28;20628;-85
2023/11/08 04:22:59;;;;;;;3.43;1.70;;;;;;;9.57;90.00;98231.13;4189313;28;20715;-85
2023/11/08 04:25:01;;;;;;;2.50;1.60;;;;;;;9.57;90.47;98238.13;4190309;28;21600;-86
2023/11/08 04:27:04;;;;;;;1.73;1.63;;;;;;;9.56;90.32;98237.31;4187177;28;20726;-86
2023/11/08 04:29:06;;;;;;;2.77;1.30;;;;;;;9.58;90.00;98237.19;4200046;28;20673;-86
2023/11/08 04:31:10;;;;;;;3.33;1.00;;;;;;;9.60;89.50;98238.75;4188661;28;20659;-86
2023/11/08 04:33:13;;;;;;;5.72;1.27;;;;;;;9.64;90.08;98234.22;4186358;28;20664;-86
2023/11/08 04:35:17;;;;;;;3.20;1.43;;;;;;;9.64;90.05;98236.81;4203051;28;20219;-86
2023/11/08 04:37:21;;;;;;;3.38;1.40;;;;;;;9.66;89.94;98235.78;4189116;28;21002;-86
2023/11/08 04:39:25;;;;;;;2.97;1.52;;;;;;;9.67;90.20;98236.63;4190508;28;20209;-86
2023/11/08 04:41:27;;;;;;;3.17;1.50;;;;;;;9.69;90.42;98232.16;4185575;28;20292;-86
2023/11/08 04:43:31;;;;;;;2.13;1.30;;;;;;;9.64;89.42;98229.84;4199913;28;20639;-86
2023/11/08 04:45:36;;;;;;;4.60;2.33;;;;;;;9.59;90.15;98226.69;4188869;28;21046;-86
2023/11/08 04:47:38;;;;;;;2.33;1.27;;;;;;;9.55;89.54;98230.41;4172300;28;20719;-86
2023/11/08 04:49:42;;;;;;;3.08;1.20;;;;;;;9.54;89.85;98222.69;4207731;28;21155;-86
2023/11/08 04:51:45;;;;;;;2.83;1.20;;;;;;;9.61;90.07;98231.81;4185692;28;20229;-86
2023/11/08 04:53:48;;;;;;;4.30;1.77;;;;;;;9.66;90.33;98212.34;4189863;28;21310;-86
2023/11/08 04:55:52;;;;;;;3.97;1.40;;;;;;;9.67;89.83;98231.44;4171659;28;21296;-86
2023/11/08 04:57:55;;;;;;;3.03;2.00;;;;;;;9.64;89.67;98227.22;4205850;28;20734;-86
2023/11/08 04:59:58;;;;;;;2.85;1.40;;;;;;;9.64;89.44;98226.41;4186491;28;20639;-86
2023/11/08 05:02:01;;;;;;;2.90;1.70;;;;;;;9.67;89.42;98218.41;4174417;28;20694;-86
2023/11/08 05:04:07;;;;;;;2.67;1.30;;;;;;;9.64;89.98;98223.81;4188764;28;21076;-86
2023/11/08 05:06:10;;;;;;;2.03;1.23;;;;;;;9.61;89.27;98224.00;4187846;28;20733;-86
2023/11/08 05:08:13;;;;;;;4.20;1.57;;;;;;;9.52;89.99;98220.19;4204812;28;20679;-86
2023/11/08 05:10:18;;;;;;;2.13;1.40;;;;;;;9.51;89.76;98226.31;4184591;28;20665;-89
2023/11/08 05:12:22;;;;;;;5.45;1.50;;;;;;;9.41;90.07;98232.19;4186970;28;20313;-88
2023/11/08 05:14:26;;;;;;;2.63;1.40;;;;;;;9.41;90.03;98230.44;4208314;28;20323;-86
2023/11/08 05:16:29;;;;;;;2.60;1.50;;;;;;;9.40;90.15;98236.56;4163944;28;20241;-86
2023/11/08 05:18:32;;;;;;;3.40;1.47;;;;;;;9.42;91.03;98239.06;4202549;28;21414;-86
2023/11/08 05:20:36;;;;;;;3.67;1.60;;;;;;;9.45;90.71;98244.91;4186271;28;20728;-86
2023/11/08 05:22:40;;;;;;;3.30;1.40;;;;;;;9.43;90.34;98240.75;4172382;28;20636;-86
2023/11/08 05:24:43;;;;;;;2.50;1.30;;;;;;;9.39;90.56;98234.88;4203117;28;20204;-86
2023/11/08 05:26:48;;;;;;;4.18;1.40;;;;;;;9.45;90.92;98241.47;4205431;28;20704;-86
2023/11/08 05:28:51;;;;;;;2.73;1.13;;;;;;;9.48;89.70;98243.91;4173730;28;20202;-86
2023/11/08 05:30:54;;;;;;;3.25;1.20;;;;;;;9.45;89.95;98241.47;4186756;28;20661;-86
2023/11/08 05:32:58;;;;;;;2.17;1.23;;;;;;;9.34;90.35;98245.69;4203309;28;20242;-86
2023/11/08 05:35:01;;;;;;;1.63;1.10;;;;;;;9.22;91.33;98246.44;4189823;28;20690;-86
2023/11/08 05:37:06;;;;;;;4.27;1.10;;;;;;;9.15;90.86;98239.91;4206565;28;20200;-86
2023/11/08 05:39:08;;;;;;;2.53;1.20;;;;;;;9.10;91.18;98234.97;4165555;28;20633;-86
2023/11/08 05:41:11;;;;;;;4.13;2.40;;;;;;;9.09;91.33;98235.91;4207552;28;20626;-88
2023/11/08 05:43:16;;;;;;;2.27;1.20;;;;;;;9.08;90.96;98238.59;4177556;28;20618;-87
2023/11/08 05:45:19;;;;;;;5.38;1.55;;;;;;;9.06;91.05;98240.47;4207554;28;20629;-87
2023/11/08 05:47:23;;;;;;;3.33;1.30;;;;;;;9.10;90.98;98241.97;4192747;28;20593;-88
2023/11/08 05:49:26;;;;;;;2.17;1.45;;;;;;;9.12;91.09;98246.13;4184815;28;20205;-88
2023/11/08 05:51:29;;;;;;;2.28;1.30;;;;;;;9.16;91.23;98247.63;4188479;28;20267;-88
2023/11/08 05:53:32;;;;;;;2.28;1.30;;;;;;;9.20;90.98;98245.66;4180149;28;20233;-87
2023/11/08 05:55:35;;;;;;;2.60;1.90;;;;;;;9.26;91.11;98247.91;4189590;28;20209;-86
2023/11/08 05:57:38;;;;;;;1.60;1.10;;;;;;;9.28;91.23;98246.06;4214245;28;20228;-88
2023/11/08 05:59:43;;;;;;;3.10;1.55;;;;;;;9.34;91.44;98250.91;4193674;28;20233;-88
2023/11/08 06:01:46;;;;;;;3.13;1.50;;;;;;;9.35;90.41;98252.53;4195697;28;20208;-88
2023/11/08 06:03:51;;;;;;;4.80;1.60;;;;;;;9.40;90.61;98256.56;4173346;28;20728;-87
2023/11/08 06:05:54;;;;;;;3.47;1.42;;;;;;;9.48;90.31;98264.72;4193727;28;20660;-87
2023/11/08 06:07:59;;;;;;;3.13;1.60;;;;;;;9.51;91.36;98260.16;4193671;28;20201;-87
2023/11/08 06:10:03;;;;;;;3.92;1.40;;;;;;;9.57;91.01;98256.34;4171785;28;20776;-86
2023/11/08 06:12:08;;;;;;;3.03;1.75;;;;;;;9.58;90.19;98261.47;4190539;28;20198;-86
2023/11/08 06:14:11;;;;;;;5.10;2.20;;;;;;;9.56;90.24;98259.88;4177173;28;20226;-87
2023/11/08 06:16:16;;;;;;;3.80;1.80;;;;;;;9.54;90.33;98265.16;4190726;28;20616;-87
2023/11/08 06:18:24;;;;;;;6.47;1.70;;;;;;;9.58;89.58;98265.84;4206795;28;20215;-88
2023/11/08 06:20:27;;;;;;;2.13;1.40;;;;;;;9.62;89.74;98277.72;4193242;28;20295;-87
2023/11/08 06:22:31;;;;;;;6.65;1.42;;;;;;;9.63;89.72;98276.81;4203949;28;20293;-87
2023/11/08 06:24:35;;;;;;;1.75;1.20;;;;;;;9.59;89.79;98270.97;4174847;28;20198;-87
2023/11/08 06:26:38;;;;;;;4.10;1.70;;;;;;;9.61;89.55;98273.47;4181794;28;20202;-87
2023/11/08 06:28:42;;;;;;;2.65;1.48;;;;;;;9.64;89.66;98279.31;4176526;28;21233;-88
2023/11/08 06:30:46;;;;;;;3.70;1.30;;;;;;;9.69;90.03;98279.03;4173120;28;20226;-88
2023/11/08 06:32:50;;;;;;;3.60;1.60;;;;;;;9.70;90.27;98280.72;4190319;28;20225;-88
2023/11/08 06:34:54;;;;;;;3.65;1.50;;;;;;;9.76;89.44;98277.69;4193402;28;20631;-88
2023/11/08 06:36:57;;;;;;;4.03;1.50;;;;;;;9.80;89.31;98289.59;4178462;28;20202;-88
2023/11/08 06:39:00;;;;;;;3.88;2.15;;;;;;;9.84;89.43;98278.06;4205703;28;20205;-88
2023/11/08 06:41:04;;;;;;;4.28;1.42;;;;;;;9.86;88.93;98282.25;4195412;28;20189;-88
2023/11/08 06:43:07;;;;;;;2.83;1.50;;;;;;;9.89;88.96;98293.31;4189492;28;20214;-88
2023/11/08 06:45:11;;;;;;;2.13;1.60;;;;;;;10.04;89.25;98292.41;4193981;28;20685;-88
2023/11/08 06:47:13;;;;;;;5.60;1.93;;;;;;;10.19;88.93;98294.00;4192969;28;20654;-87
2023/11/08 06:49:18;;;;;;;3.40;1.70;;;;;;;10.36;88.66;98294.63;4199016;28;20986;-88
2023/11/08 06:51:22;;;;;;;3.10;2.60;;;;;;;10.47;87.97;98304.38;4208469;28;20659;-88
2023/11/08 06:53:26;;;;;;;2.30;1.50;;;;;;;10.51;87.75;98298.03;4195718;28;20663;-88
2023/11/08 06:55:33;;;;;;;1.93;1.50;;;;;;;10.55;87.33;98294.25;4195817;28;20695;-88
2023/11/08 06:57:42;;;;;;;6.00;2.67;;;;;;;10.54;87.87;98289.97;4208170;28;20725;-88
2023/11/08 06:59:45;;;;;;;2.83;2.00;;;;;;;10.55;87.45;98302.91;4168098;28;20739;-89
2023/11/08 07:01:48;;;;;;;4.80;2.00;;;;;;;10.39;87.22;98304.03;4186951;28;20635;-88
2023/11/08 07:03:52;;;;;;;5.50;2.37;;;;;;;10.32;87.45;98302.75;4189199;28;20677;-88
2023/11/08 07:05:56;;;;;;;3.10;2.37;;;;;;;10.37;87.67;98298.06;4203872;28;20677;-87
2023/11/08 07:08:00;;;;;;;5.07;2.23;;;;;;;10.35;87.91;98299.94;4192456;28;20624;-87
2023/11/08 07:10:05;;;;;;;2.58;1.92;;;;;;;10.27;87.49;98309.16;4196407;28;20608;-87
2023/11/08 07:12:09;;;;;;;4.53;2.77;;;;;;;10.30;88.21;98304.63;4194264;28;20208;-86
2023/11/08 07:14:12;;;;;;;3.13;1.87;;;;;;;10.39;88.29;98315.28;4205821;28;20713;-90
2023/11/08 07:16:16;;;;;;;3.20;2.03;;;;;;;10.57;87.07;98321.94;4166997;28;21402;-87
2023/11/08 07:18:19;;;;;;;4.13;1.80;;;;;;;10.75;86.91;98327.69;4202245;28;20624;-87
2023/11/08 07:20:22;;;;;;;5.37;2.07;;;;;;;10.97;87.66;98329.63;4174181;28;20712;-87
2023/11/08 07:22:27;;;;;;;3.97;2.40;;;;;;;11.16;86.94;98339.72;4168538;28;20621;-87
2023/11/08 07:24:30;;;;;;;4.40;1.73;;;;;;;11.27;85.65;98335.44;4208324;28;20607;-87
2023/11/08 07:26:34;;;;;;;4.20;1.93;;;;;;;11.28;84.35;98331.91;4193706;28;21197;-87
2023/11/08 07:28:37;;;;;;;3.93;1.67;;;;;;;11.40;83.54;98336.28;4207903;28;20717;-87
2023/11/08 07:30:41;;;;;;;2.50;1.70;;;;;;;11.48;83.44;98328.78;4174635;28;21054;-87
2023/11/08 07:32:45;;;;;;;5.60;2.37;;;;;;;11.56;82.71;98335.19;4191826;28;20653;-87
2023/11/08 07:34:49;;;;;;;3.70;2.73;;;;;;;11.60;82.51;98341.03;4182726;28;20756;-87
2023/11/08 07:36:53;;;;;;;3.40;1.63;;;;;;;11.69;83.21;98341.22;4208302;28;20634;-87
2023/11/08 07:38:59;;;;;;;4.30;1.77;;;;;;;11.75;82.87;98342.59;4175841;28;20707;-87
2023/11/08 07:41:03;;;;;;;3.30;1.77;;;;;;;11.68;81.49;98341.31;4176120;28;20683;-87
2023/11/08 07:43:06;;;;;;;3.83;1.87;;;;;;;11.65;83.27;98339.78;4207741;28;20623;-86
2023/11/08 07:45:11;;;;;;;2.87;2.00;;;;;;;11.76;83.16;98343.31;4194742;28;20627;-87
2023/11/08 07:47:14;;;;;;;3.40;1.73;;;;;;;11.94;83.17;98342.03;4177692;28;20687;-87
2023/11/08 07:49:18;;;;;;;2.90;1.77;;;;;;;11.97;81.00;98347.06;4165250;28;20636;-87
2023/11/08 07:51:21;;;;;;;3.10;1.80;;;;;;;11.96;81.75;98344.53;4180679;28;21301;-87
2023/11/08 07:53:24;;;;;;;2.80;2.40;;;;;;;11.89;81.83;98348.50;4179223;28;20719;-87
2023/11/08 07:55:31;;;;;;;3.23;1.80;;;;;;;11.95;81.87;98350.69;4183218;28;20735;-87
2023/11/08 07:57:34;;;;;;;4.83;2.03;;;;;;;12.18;81.85;98360.38;4200867;28;20624;-87
2023/11/08 07:59:37;;;;;;;2.90;1.90;;;;;;;12.38;81.60;98358.03;4172975;28;20636;-86
2023/11/08 08:01:40;;;;;;;2.77;1.60;;;;;;;12.62;81.63;98357.13;4192517;28;20715;-87
2023/11/08 08:03:43;;;;;;;2.40;1.73;;;;;;;12.65;80.77;98356.06;4173290;28;20617;-87
2023/11/08 08:05:46;;;;;;;2.10;1.80;;;;;;;12.66;80.09;98358.59;4175844;28;20715;-87
2023/11/08 08:07:52;;;;;;;2.70;1.70;;;;;;;12.68;80.44;98359.28;4188986;28;20986;-87
2023/11/08 08:09:54;;;;;;;3.20;1.90;;;;;;;12.76;78.73;98360.41;4191288;28;20635;-87
2023/11/08 08:11:59;;;;;;;4.83;3.93;;;;;;;12.83;79.64;98361.66;4186462;28;20631;-87
2023/11/08 08:14:02;;;;;;;5.03;2.20;;;;;;;12.86;79.77;98358.81;4198118;28;20664;-88
2023/11/08 08:16:05;;;;;;;3.00;2.00;;;;;;;12.80;78.39;98366.25;4188854;28;20621;-87
2023/11/08 08:18:11;;;;;;;3.20;1.73;;;;;;;12.85;79.21;98358.94;4205488;28;20613;-87
2023/11/08 08:20:14;;;;;;;2.73;2.00;;;;;;;12.94;79.38;98353.84;4187838;28;20619;-87
2023/11/08 08:22:20;;;;;;;8.13;1.83;;;;;;;12.88;79.66;98367.38;4173219;28;20918;-88
2023/11/08 08:24:23;;;;;;;3.47;2.10;;;;;;;12.88;79.04;98354.28;4185095;28;20676;-87
2023/11/08 08:26:26;;;;;;;3.40;1.93;;;;;;;12.87;79.14;98360.50;4175804;28;20631;-88
2023/11/08 08:28:35;;;;;;;3.17;1.53;;;;;;;12.83;78.34;98352.97;4203790;28;20620;-87
2023/11/08 08:30:40;;;;;;;7.43;2.37;;;;;;;12.82;78.75;98356.50;4204829;28;20659;-87
2023/11/08 08:32:44;;;;;;;3.70;1.73;;;;;;;12.87;79.65;98362.25;4174597;28;20709;-87
2023/11/08 08:34:48;;;;;;;3.10;1.70;;;;;;;12.89;77.49;98350.75;4191913;28;20644;-87
2023/11/08 08:36:52;;;;;;;5.00;2.00;;;;;;;12.93;78.31;98352.19;4189789;28;21227;-87
2023/11/08 08:38:54;;;;;;;2.73;1.77;;;;;;;12.99;79.45;98362.22;4176382;28;20650;-87
2023/11/08 08:40:57;;;;;;;3.00;1.50;;;;;;;13.04;78.48;98357.47;4174358;28;20645;-87
2023/11/08 08:43:01;;;;;;;3.20;2.37;;;;;;;13.11;78.06;98353.47;4204984;28;21211;-87
2023/11/08 08:45:07;;;;;;;3.03;1.90;;;;;;;13.09;77.44;98352.72;4190585;28;21256;-87
2023/11/08 08:47:10;;;;;;;3.73;2.83;;;;;;;13.02;78.11;98356.75;4189346;28;20655;-87
2023/11/08 08:49:12;;;;;;;3.33;1.90;;;;;;;12.97;78.31;98351.00;4189980;28;20623;-87
2023/11/08 08:51:16;;;;;;;5.20;2.17;;;;;;;13.01;78.44;98349.84;4202577;28;20642;-87
2023/11/08 08:53:20;;;;;;;5.17;1.63;;;;;;;13.17;78.93;98352.16;4171527;28;20634;-87
2023/11/08 08:55:24;;;;;;;4.27;2.20;;;;;;;13.28;77.90;98347.78;4174703;28;20659;-87
2023/11/08 08:57:26;;;;;;;3.33;1.83;;;;;;;13.34;78.69;98345.53;4191238;28;20648;-87
2023/11/08 08:59:29;;;;;;;2.40;1.97;;;;;;;13.41;77.87;98351.16;4186693;28;21044;-87
2023/11/08 09:01:34;;;;;;;2.90;1.33;;;;;;;13.45;77.91;98360.47;4177165;28;20653;-87
2023/11/08 09:03:37;;;;;;;3.10;1.50;;;;;;;13.45;78.50;98345.56;4187494;28;20731;-86
2023/11/08 09:05:40;;;;;;;2.57;1.40;;;;;;;13.49;78.19;98347.00;4173714;28;21054;-87
2023/11/08 09:07:43;;;;;;;2.47;1.30;;;;;;;13.58;76.06;98351.56;4184087;28;20626;-88
2023/11/08 09:09:47;;;;;;;2.40;1.47;;;;;;;13.54;76.98;98341.41;4203725;28;20650;-88
2023/11/08 09:11:50;;;;;;;2.43;1.40;;;;;;;13.60;76.73;98344.41;4191368;28;20643;-87
2023/11/08 09:13:54;;;;;;;3.90;1.60;;;;;;;13.58;77.71;98345.50;4206636;28;20615;-87
2023/11/08 09:15:59;;;;;;;3.20;1.27;;;;;;;13.53;76.63;98350.22;4177626;28;21042;-87
2023/11/08 09:18:04;;;;;;;1.90;1.03;;;;;;;13.49;78.14;98348.81;4181113;28;20667;-88
2023/11/08 09:20:08;;;;;;;2.40;1.33;;;;;;;13.46;77.03;98346.41;4208237;28;20680;-88
2023/11/08 09:22:12;;;;;;;4.03;1.40;;;;;;;13.54;77.38;98350.09;4206214;28;21057;-88
2023/11/08 09:24:16;;;;;;;2.57;1.00;;;;;;;13.49;75.67;98349.63;4206838;28;20631;-88
2023/11/08 09:26:19;;;;;;;2.70;1.20;;;;;;;13.42;77.13;98340.56;4187241;28;20614;-88
2023/11/08 09:28:22;;;;;;;3.53;1.23;;;;;;;13.44;78.50;98343.91;4186499;28;20660;-88
2023/11/08 09:30:25;;;;;;;2.23;1.00;;;;;;;13.34;76.21;98352.56;4177889;28;20636;-88
2023/11/08 09:32:29;;;;;;;3.13;1.53;;;;;;;13.28;76.60;98347.78;4187067;28;21186;-87
2023/11/08 09:34:33;;;;;;;2.50;1.10;;;;;;;13.30;77.10;98354.56;4210612;28;20662;-87
2023/11/08 09:36:37;;;;;;;2.00;1.00;;;;;;;13.41;77.55;98356.38;4190989;28;20620;-87
2023/11/08 09:38:46;;;;;;;4.03;1.23;;;;;;;13.44;76.59;98361.41;4195192;28;20611;-88
2023/11/08 09:40:51;;;;;;;2.33;1.00;;;;;;;13.49;75.71;98357.50;4194826;28;20628;-88
2023/11/08 09:42:56;;;;;;;1.33;0.87;;;;;;;13.60;76.99;98348.81;4207244;28;20627;-88
2023/11/08 09:45:00;;;;;;;3.37;1.17;;;;;;;13.65;75.88;98358.84;4209861;28;20753;-88
2023/11/08 09:47:05;;;;;;;1.83;1.00;;;;;;;13.72;76.73;98359.19;4190374;28;20619;-87